sensor_id;sensor_type;location;lat;lon;timestamp;temperature;humidity
8824;DHT22;4448;50.904;4.694;2022-12-29T00:01:23;11.60;99.90
8824;DHT22;4448;50.904;4.694;2022-12-29T00:03:50;11.60;99.90
8824;DHT22;4448;50.904;4.694;2022-12-29T00:06:15;11.70;99.90
8824;DHT22;4448;50.904;4.694;2022-12-29T00:08:41;11.70;99.90
8824;DHT22;4448;50.904;4.694;2022-12-29T00:11:12;11.70;99.90
8824;DHT22;4448;50.904;4.694;2022-12-29T00:13:38;11.60;99.90
8824;DHT22;4448;50.904;4.694;2022-12-29T00:16:23;11.50;99.90
8824;DHT22;4448;50.904;4.694;2022-12-29T00:18:49;11.50;99.90
8824;DHT22;4448;50.904;4.694;2022-12-29T00:21:18;11.50;99.90
8824;DHT22;4448;50.904;4.694;2022-12-29T00:24:02;11.60;99.90
8824;DHT22;4448;50.904;4.694;2022-12-29T00:29:48;11.70;99.90
8824;DHT22;4448;50.904;4.694;2022-12-29T00:32:32;11.80;99.90
8824;DHT22;4448;50.904;4.694;2022-12-29T00:35:34;11.90;99.90
8824;DHT22;4448;50.904;4.694;2022-12-29T00:38:05;11.90;99.90
8824;DHT22;4448;50.904;4.694;2022-12-29T00:40:51;11.90;99.90
8824;DHT22;4448;50.904;4.694;2022-12-29T00:43:35;12.00;99.90
8824;DHT22;4448;50.904;4.694;2022-12-29T00:46:20;12.00;99.90
8824;DHT22;4448;50.904;4.694;2022-12-29T00:48:45;12.00;99.90
8824;DHT22;4448;50.904;4.694;2022-12-29T00:51:30;12.00;99.90
8824;DHT22;4448;50.904;4.694;2022-12-29T00:53:56;12.00;99.90
8824;DHT22;4448;50.904;4.694;2022-12-29T00:56:22;12.00;99.90
8824;DHT22;4448;50.904;4.694;2022-12-29T00:58:48;12.00;99.90
8824;DHT22;4448;50.904;4.694;2022-12-29T01:01:14;12.00;99.90
8824;DHT22;4448;50.904;4.694;2022-12-29T01:03:39;12.10;99.90
8824;DHT22;4448;50.904;4.694;2022-12-29T01:06:10;12.00;99.90
8824;DHT22;4448;50.904;4.694;2022-12-29T01:08:36;12.00;99.90
8824;DHT22;4448;50.904;4.694;2022-12-29T01:11:10;11.90;99.90
8824;DHT22;4448;50.904;4.694;2022-12-29T01:13:37;12.00;99.90
8824;DHT22;4448;50.904;4.694;2022-12-29T01:16:06;12.00;99.90
8824;DHT22;4448;50.904;4.694;2022-12-29T01:18:33;12.00;99.90
8824;DHT22;4448;50.904;4.694;2022-12-29T01:21:04;12.00;99.90
8824;DHT22;4448;50.904;4.694;2022-12-29T01:23:31;11.90;99.90
8824;DHT22;4448;50.904;4.694;2022-12-29T01:25:57;11.90;99.90
8824;DHT22;4448;50.904;4.694;2022-12-29T01:28:23;11.80;99.90
8824;DHT22;4448;50.904;4.694;2022-12-29T01:30:49;11.70;99.90
8824;DHT22;4448;50.904;4.694;2022-12-29T01:33:14;11.60;99.90
8824;DHT22;4448;50.904;4.694;2022-12-29T01:35:40;11.50;99.90
8824;DHT22;4448;50.904;4.694;2022-12-29T01:38:06;12.10;99.90
8824;DHT22;4448;50.904;4.694;2022-12-29T01:40:34;11.20;99.90
8824;DHT22;4448;50.904;4.694;2022-12-29T01:43:11;11.10;99.90
8824;DHT22;4448;50.904;4.694;2022-12-29T01:45:37;11.10;99.90
8824;DHT22;4448;50.904;4.694;2022-12-29T01:48:05;11.10;99.90
8824;DHT22;4448;50.904;4.694;2022-12-29T01:50:39;11.00;99.90
8824;DHT22;4448;50.904;4.694;2022-12-29T01:53:14;11.10;99.90
8824;DHT22;4448;50.904;4.694;2022-12-29T01:55:46;11.10;99.90
8824;DHT22;4448;50.904;4.694;2022-12-29T01:58:14;10.90;99.90
8824;DHT22;4448;50.904;4.694;2022-12-29T02:00:42;10.80;99.90
8824;DHT22;4448;50.904;4.694;2022-12-29T02:03:08;10.80;99.90
8824;DHT22;4448;50.904;4.694;2022-12-29T02:08:06;10.80;99.90
8824;DHT22;4448;50.904;4.694;2022-12-29T02:10:35;10.70;99.90
8824;DHT22;4448;50.904;4.694;2022-12-29T02:13:01;10.70;99.90
8824;DHT22;4448;50.904;4.694;2022-12-29T02:21:43;10.40;99.90
8824;DHT22;4448;50.904;4.694;2022-12-29T02:24:32;10.30;99.90
